sensor_id;sensor_type;location;lat;lon;timestamp;P1;durP1;ratioP1;P2;durP2;ratioP2
27219;SDS011;45274;52.266;10.790;2023-12-14T00:01:33;15.13;;;8.65;;
27219;SDS011;45274;52.266;10.790;2023-12-14T00:03:58;11.80;;;7.72;;
27219;SDS011;45274;52.266;10.790;2023-12-14T00:06:23;12.93;;;8.25;;
27219;SDS011;45274;52.266;10.790;2023-12-14T00:08:48;14.45;;;7.82;;
27219;SDS011;45274;52.266;10.790;2023-12-14T00:11:14;13.18;;;8.43;;
27219;SDS011;45274;52.266;10.790;2023-12-14T00:13:39;11.98;;;7.95;;
27219;SDS011;45274;52.266;10.790;2023-12-14T00:16:04;10.30;;;7.82;;
27219;SDS011;45274;52.266;10.790;2023-12-14T00:18:30;12.60;;;7.53;;
27219;SDS011;45274;52.266;10.790;2023-12-14T00:20:55;11.10;;;7.45;;
27219;SDS011;45274;52.266;10.790;2023-12-14T00:23:21;12.93;;;8.15;;
27219;SDS011;45274;52.266;10.790;2023-12-14T00:25:46;14.15;;;8.35;;
27219;SDS011;45274;52.266;10.790;2023-12-14T00:28:11;11.98;;;8.10;;
27219;SDS011;45274;52.266;10.790;2023-12-14T00:30:36;15.10;;;8.25;;
27219;SDS011;45274;52.266;10.790;2023-12-14T00:33:02;15.73;;;8.50;;
27219;SDS011;45274;52.266;10.790;2023-12-14T00:35:27;14.20;;;8.93;;
27219;SDS011;45274;52.266;10.790;2023-12-14T00:37:52;15.02;;;9.43;;
27219;SDS011;45274;52.266;10.790;2023-12-14T00:40:17;15.38;;;8.05;;
27219;SDS011;45274;52.266;10.790;2023-12-14T00:42:43;14.85;;;9.35;;
27219;SDS011;45274;52.266;10.790;2023-12-14T00:45:08;15.27;;;9.02;;
27219;SDS011;45274;52.266;10.790;2023-12-14T00:47:33;13.23;;;8.70;;
27219;SDS011;45274;52.266;10.790;2023-12-14T00:49:59;21.27;;;10.23;;
27219;SDS011;45274;52.266;10.790;2023-12-14T00:52:24;17.75;;;9.02;;
27219;SDS011;45274;52.266;10.790;2023-12-14T00:54:49;18.77;;;8.73;;
27219;SDS011;45274;52.266;10.790;2023-12-14T00:57:14;15.38;;;9.35;;
27219;SDS011;45274;52.266;10.790;2023-12-14T00:59:39;19.75;;;8.68;;
27219;SDS011;45274;52.266;10.790;2023-12-14T01:02:05;15.88;;;9.05;;
27219;SDS011;45274;52.266;10.790;2023-12-14T01:04:30;16.40;;;10.05;;
27219;SDS011;45274;52.266;10.790;2023-12-14T01:06:56;16.17;;;8.65;;
27219;SDS011;45274;52.266;10.790;2023-12-14T01:09:21;18.02;;;8.52;;
27219;SDS011;45274;52.266;10.790;2023-12-14T01:11:46;14.75;;;7.75;;
27219;SDS011;45274;52.266;10.790;2023-12-14T01:14:11;16.42;;;8.57;;
27219;SDS011;45274;52.266;10.790;2023-12-14T01:16:37;14.60;;;8.70;;
27219;SDS011;45274;52.266;10.790;2023-12-14T01:19:04;16.00;;;8.88;;
27219;SDS011;45274;52.266;10.790;2023-12-14T01:21:31;14.45;;;8.88;;
27219;SDS011;45274;52.266;10.790;2023-12-14T01:23:56;19.23;;;9.38;;
27219;SDS011;45274;52.266;10.790;2023-12-14T01:26:21;17.67;;;8.18;;
27219;SDS011;45274;52.266;10.790;2023-12-14T01:28:46;15.80;;;8.30;;
27219;SDS011;45274;52.266;10.790;2023-12-14T01:31:12;15.70;;;8.85;;
27219;SDS011;45274;52.266;10.790;2023-12-14T01:33:37;17.38;;;8.63;;
27219;SDS011;45274;52.266;10.790;2023-12-14T01:36:02;13.35;;;8.60;;
27219;SDS011;45274;52.266;10.790;2023-12-14T01:38:27;18.65;;;8.30;;
27219;SDS011;45274;52.266;10.790;2023-12-14T01:40:53;14.88;;;8.60;;
27219;SDS011;45274;52.266;10.790;2023-12-14T01:43:20;13.38;;;7.65;;
27219;SDS011;45274;52.266;10.790;2023-12-14T01:45:46;15.07;;;7.47;;
27219;SDS011;45274;52.266;10.790;2023-12-14T01:48:11;15.45;;;7.97;;
27219;SDS011;45274;52.266;10.790;2023-12-14T01:50:36;14.85;;;8.63;;
27219;SDS011;45274;52.266;10.790;2023-12-14T01:53:02;12.40;;;8.02;;
27219;SDS011;45274;52.266;10.790;2023-12-14T01:55:27;13.00;;;8.30;;
27219;SDS011;45274;52.266;10.790;2023-12-14T01:57:52;13.55;;;8.57;;
27219;SDS011;45274;52.266;10.790;2023-12-14T02:03:06;17.27;;;9.10;;
27219;SDS011;45274;52.266;10.790;2023-12-14T02:05:31;12.93;;;8.68;;
27219;SDS011;45274;52.266;10.790;2023-12-14T02:07:56;14.18;;;8.38;;
27219;SDS011;45274;52.266;10.790;2023-12-14T02:10:22;17.63;;;9.05;;
27219;SDS011;45274;52.266;10.790;2023-12-14T02:12:48;13.23;;;8.43;;
27219;SDS011;45274;52.266;10.790;2023-12-14T02:15:13;13.18;;;8.40;;
27219;SDS011;45274;52.266;10.790;2023-12-14T02:17:38;12.07;;;7.80;;
27219;SDS011;45274;52.266;10.790;2023-12-14T02:20:03;12.18;;;8.48;;
27219;SDS011;45274;52.266;10.790;2023-12-14T02:22:32;12.75;;;8.57;;
27219;SDS011;45274;52.266;10.790;2023-12-14T02:24:57;13.07;;;8.52;;
27219;SDS011;45274;52.266;10.790;2023-12-14T02:27:22;11.48;;;7.80;;
27219;SDS011;45274;52.266;10.790;2023-12-14T02:29:48;12.40;;;8.45;;
27219;SDS011;45274;52.266;10.790;2023-12-14T02:32:13;13.85;;;8.80;;
27219;SDS011;45274;52.266;10.790;2023-12-14T02:34:38;12.30;;;8.30;;
27219;SDS011;45274;52.266;10.790;2023-12-14T02:37:03;13.15;;;7.88;;
27219;SDS011;45274;52.266;10.790;2023-12-14T02:39:29;12.02;;;8.32;;
27219;SDS011;45274;52.266;10.790;2023-12-14T02:41:54;13.43;;;8.43;;
27219;SDS011;45274;52.266;10.790;2023-12-14T02:44:19;12.18;;;8.18;;
27219;SDS011;45274;52.266;10.790;2023-12-14T02:46:44;12.13;;;8.40;;
27219;SDS011;45274;52.266;10.790;2023-12-14T02:49:10;13.02;;;8.50;;
27219;SDS011;45274;52.266;10.790;2023-12-14T02:51:35;12.25;;;7.95;;
27219;SDS011;45274;52.266;10.790;2023-12-14T02:54:00;16.17;;;8.27;;
27219;SDS011;45274;52.266;10.790;2023-12-14T02:56:25;9.68;;;7.15;;
27219;SDS011;45274;52.266;10.790;2023-12-14T02:58:51;12.18;;;8.07;;
27219;SDS011;45274;52.266;10.790;2023-12-14T03:01:19;10.77;;;7.20;;
27219;SDS011;45274;52.266;10.790;2023-12-14T03:03:45;9.77;;;7.03;;
27219;SDS011;45274;52.266;10.790;2023-12-14T03:06:11;11.25;;;8.02;;
27219;SDS011;45274;52.266;10.790;2023-12-14T03:08:36;12.40;;;7.53;;
27219;SDS011;45274;52.266;10.790;2023-12-14T03:11:01;10.60;;;7.30;;
27219;SDS011;45274;52.266;10.790;2023-12-14T03:13:26;10.25;;;7.53;;
27219;SDS011;45274;52.266;10.790;2023-12-14T03:15:53;10.57;;;7.53;;
27219;SDS011;45274;52.266;10.790;2023-12-14T03:18:18;9.27;;;6.47;;
27219;SDS011;45274;52.266;10.790;2023-12-14T03:20:43;10.07;;;6.40;;
27219;SDS011;45274;52.266;10.790;2023-12-14T03:23:09;13.90;;;6.05;;
27219;SDS011;45274;52.266;10.790;2023-12-14T03:25:34;8.88;;;5.88;;
27219;SDS011;45274;52.266;10.790;2023-12-14T03:27:59;8.43;;;5.47;;
27219;SDS011;45274;52.266;10.790;2023-12-14T03:30:24;7.47;;;5.60;;
27219;SDS011;45274;52.266;10.790;2023-12-14T03:32:51;9.30;;;5.47;;
27219;SDS011;45274;52.266;10.790;2023-12-14T03:35:17;7.55;;;4.97;;
27219;SDS011;45274;52.266;10.790;2023-12-14T03:37:42;9.70;;;5.45;;
27219;SDS011;45274;52.266;10.790;2023-12-14T03:40:07;6.55;;;4.47;;
27219;SDS011;45274;52.266;10.790;2023-12-14T03:42:32;5.60;;;4.07;;
27219;SDS011;45274;52.266;10.790;2023-12-14T03:44:58;5.47;;;3.72;;
27219;SDS011;45274;52.266;10.790;2023-12-14T03:47:23;8.32;;;4.10;;
27219;SDS011;45274;52.266;10.790;2023-12-14T03:49:48;5.22;;;3.97;;
27219;SDS011;45274;52.266;10.790;2023-12-14T03:52:14;6.53;;;3.55;;
27219;SDS011;45274;52.266;10.790;2023-12-14T03:54:39;5.78;;;3.83;;
27219;SDS011;45274;52.266;10.790;2023-12-14T03:57:05;5.47;;;3.22;;
27219;SDS011;45274;52.266;10.790;2023-12-14T03:59:30;4.68;;;3.42;;
27219;SDS011;45274;52.266;10.790;2023-12-14T04:01:57;5.15;;;3.40;;
27219;SDS011;45274;52.266;10.790;2023-12-14T04:04:24;4.05;;;3.45;;
27219;SDS011;45274;52.266;10.790;2023-12-14T04:06:49;5.30;;;3.30;;
27219;SDS011;45274;52.266;10.790;2023-12-14T04:09:16;6.10;;;3.60;;
27219;SDS011;45274;52.266;10.790;2023-12-14T04:11:41;5.03;;;3.60;;
27219;SDS011;45274;52.266;10.790;2023-12-14T04:14:09;3.72;;;3.10;;
27219;SDS011;45274;52.266;10.790;2023-12-14T04:16:35;3.83;;;3.05;;
27219;SDS011;45274;52.266;10.790;2023-12-14T04:19:00;4.43;;;2.78;;
27219;SDS011;45274;52.266;10.790;2023-12-14T04:21:25;3.53;;;3.20;;
27219;SDS011;45274;52.266;10.790;2023-12-14T04:23:50;4.63;;;3.10;;
27219;SDS011;45274;52.266;10.790;2023-12-14T04:26:16;3.92;;;3.25;;
27219;SDS011;45274;52.266;10.790;2023-12-14T04:28:41;3.88;;;3.00;;
27219;SDS011;45274;52.266;10.790;2023-12-14T04:31:08;4.28;;;3.60;;
27219;SDS011;45274;52.266;10.790;2023-12-14T04:33:35;6.85;;;4.10;;
27219;SDS011;45274;52.266;10.790;2023-12-14T04:36:00;4.88;;;3.63;;
27219;SDS011;45274;52.266;10.790;2023-12-14T04:38:25;4.50;;;3.70;;
27219;SDS011;45274;52.266;10.790;2023-12-14T04:40:51;5.63;;;4.45;;
27219;SDS011;45274;52.266;10.790;2023-12-14T04:43:16;5.95;;;4.38;;
27219;SDS011;45274;52.266;10.790;2023-12-14T04:45:41;5.23;;;4.40;;
27219;SDS011;45274;52.266;10.790;2023-12-14T04:48:06;4.90;;;4.15;;
27219;SDS011;45274;52.266;10.790;2023-12-14T04:50:31;6.95;;;4.90;;
27219;SDS011;45274;52.266;10.790;2023-12-14T04:52:57;7.95;;;4.50;;
27219;SDS011;45274;52.266;10.790;2023-12-14T04:55:22;5.25;;;4.15;;
27219;SDS011;45274;52.266;10.790;2023-12-14T04:57:47;5.97;;;4.30;;
27219;SDS011;45274;52.266;10.790;2023-12-14T05:00:14;7.22;;;4.93;;
27219;SDS011;45274;52.266;10.790;2023-12-14T05:02:39;8.73;;;5.13;;
27219;SDS011;45274;52.266;10.790;2023-12-14T05:05:04;7.63;;;5.28;;
27219;SDS011;45274;52.266;10.790;2023-12-14T05:07:30;7.95;;;4.75;;
27219;SDS011;45274;52.266;10.790;2023-12-14T05:09:55;7.13;;;5.03;;
27219;SDS011;45274;52.266;10.790;2023-12-14T05:12:20;6.45;;;5.00;;
27219;SDS011;45274;52.266;10.790;2023-12-14T05:14:46;7.88;;;5.20;;
27219;SDS011;45274;52.266;10.790;2023-12-14T05:17:11;8.13;;;5.13;;
27219;SDS011;45274;52.266;10.790;2023-12-14T05:19:36;8.32;;;5.50;;
27219;SDS011;45274;52.266;10.790;2023-12-14T05:22:02;7.38;;;6.10;;
27219;SDS011;45274;52.266;10.790;2023-12-14T05:24:27;8.55;;;6.03;;
27219;SDS011;45274;52.266;10.790;2023-12-14T05:26:52;10.45;;;6.15;;
27219;SDS011;45274;52.266;10.790;2023-12-14T05:29:17;8.20;;;6.60;;
27219;SDS011;45274;52.266;10.790;2023-12-14T05:31:46;10.30;;;6.43;;
27219;SDS011;45274;52.266;10.790;2023-12-14T05:34:11;9.35;;;6.32;;
27219;SDS011;45274;52.266;10.790;2023-12-14T05:36:39;8.40;;;5.97;;
27219;SDS011;45274;52.266;10.790;2023-12-14T05:39:04;10.35;;;5.80;;
27219;SDS011;45274;52.266;10.790;2023-12-14T05:41:30;7.55;;;6.10;;
27219;SDS011;45274;52.266;10.790;2023-12-14T05:43:55;8.17;;;6.17;;
27219;SDS011;45274;52.266;10.790;2023-12-14T05:46:21;9.57;;;6.43;;
27219;SDS011;45274;52.266;10.790;2023-12-14T05:48:46;8.75;;;6.13;;
27219;SDS011;45274;52.266;10.790;2023-12-14T05:51:12;8.27;;;5.43;;
27219;SDS011;45274;52.266;10.790;2023-12-14T05:53:37;8.55;;;5.57;;
27219;SDS011;45274;52.266;10.790;2023-12-14T05:56:04;8.30;;;5.60;;
27219;SDS011;45274;52.266;10.790;2023-12-14T05:58:31;9.43;;;6.72;;
27219;SDS011;45274;52.266;10.790;2023-12-14T06:00:56;7.68;;;5.78;;
27219;SDS011;45274;52.266;10.790;2023-12-14T06:03:21;9.55;;;6.57;;
27219;SDS011;45274;52.266;10.790;2023-12-14T06:05:47;9.82;;;6.30;;
27219;SDS011;45274;52.266;10.790;2023-12-14T06:08:12;10.40;;;6.55;;
27219;SDS011;45274;52.266;10.790;2023-12-14T06:10:38;8.30;;;5.30;;
27219;SDS011;45274;52.266;10.790;2023-12-14T06:13:03;9.10;;;6.07;;
27219;SDS011;45274;52.266;10.790;2023-12-14T06:15:28;8.85;;;5.70;;
27219;SDS011;45274;52.266;10.790;2023-12-14T06:17:54;6.90;;;4.80;;
27219;SDS011;45274;52.266;10.790;2023-12-14T06:20:19;9.55;;;6.28;;
27219;SDS011;45274;52.266;10.790;2023-12-14T06:22:44;9.48;;;6.47;;
27219;SDS011;45274;52.266;10.790;2023-12-14T06:25:09;8.90;;;5.13;;
27219;SDS011;45274;52.266;10.790;2023-12-14T06:27:34;9.93;;;6.38;;
27219;SDS011;45274;52.266;10.790;2023-12-14T06:30:00;7.47;;;5.43;;
27219;SDS011;45274;52.266;10.790;2023-12-14T06:32:25;9.45;;;5.43;;
27219;SDS011;45274;52.266;10.790;2023-12-14T06:34:50;7.85;;;5.20;;
27219;SDS011;45274;52.266;10.790;2023-12-14T06:37:15;7.82;;;5.22;;
27219;SDS011;45274;52.266;10.790;2023-12-14T06:39:41;7.15;;;5.25;;
27219;SDS011;45274;52.266;10.790;2023-12-14T06:42:06;6.70;;;5.18;;
27219;SDS011;45274;52.266;10.790;2023-12-14T06:44:32;7.07;;;5.05;;
27219;SDS011;45274;52.266;10.790;2023-12-14T06:46:57;7.93;;;5.63;;
27219;SDS011;45274;52.266;10.790;2023-12-14T06:49:23;9.38;;;5.13;;
27219;SDS011;45274;52.266;10.790;2023-12-14T06:51:48;7.05;;;5.35;;
27219;SDS011;45274;52.266;10.790;2023-12-14T06:54:14;6.57;;;4.97;;
27219;SDS011;45274;52.266;10.790;2023-12-14T06:56:39;7.82;;;5.38;;
27219;SDS011;45274;52.266;10.790;2023-12-14T06:59:04;8.05;;;4.65;;
27219;SDS011;45274;52.266;10.790;2023-12-14T07:01:29;7.00;;;5.03;;
27219;SDS011;45274;52.266;10.790;2023-12-14T07:03:55;6.63;;;5.15;;
27219;SDS011;45274;52.266;10.790;2023-12-14T07:06:20;8.52;;;5.18;;
27219;SDS011;45274;52.266;10.790;2023-12-14T07:08:46;7.32;;;5.20;;
27219;SDS011;45274;52.266;10.790;2023-12-14T07:11:12;5.80;;;4.80;;
27219;SDS011;45274;52.266;10.790;2023-12-14T07:13:38;7.93;;;5.28;;
27219;SDS011;45274;52.266;10.790;2023-12-14T07:16:07;7.07;;;5.57;;
27219;SDS011;45274;52.266;10.790;2023-12-14T07:18:33;7.57;;;5.50;;
27219;SDS011;45274;52.266;10.790;2023-12-14T07:20:58;6.20;;;4.68;;
27219;SDS011;45274;52.266;10.790;2023-12-14T07:23:23;7.53;;;5.45;;
27219;SDS011;45274;52.266;10.790;2023-12-14T07:25:49;6.63;;;5.10;;
27219;SDS011;45274;52.266;10.790;2023-12-14T07:28:14;7.70;;;6.07;;
27219;SDS011;45274;52.266;10.790;2023-12-14T07:30:39;8.10;;;6.07;;
27219;SDS011;45274;52.266;10.790;2023-12-14T07:33:04;9.05;;;6.45;;
27219;SDS011;45274;52.266;10.790;2023-12-14T07:35:29;12.50;;;6.82;;
27219;SDS011;45274;52.266;10.790;2023-12-14T07:37:55;10.57;;;7.55;;
27219;SDS011;45274;52.266;10.790;2023-12-14T07:40:20;11.77;;;7.53;;
27219;SDS011;45274;52.266;10.790;2023-12-14T07:42:45;12.13;;;7.50;;
27219;SDS011;45274;52.266;10.790;2023-12-14T07:45:11;12.40;;;7.65;;
27219;SDS011;45274;52.266;10.790;2023-12-14T07:47:36;12.43;;;8.55;;
27219;SDS011;45274;52.266;10.790;2023-12-14T07:50:01;12.02;;;8.30;;
27219;SDS011;45274;52.266;10.790;2023-12-14T07:52:27;13.77;;;9.07;;
27219;SDS011;45274;52.266;10.790;2023-12-14T07:54:52;13.70;;;8.93;;
27219;SDS011;45274;52.266;10.790;2023-12-14T07:57:17;13.80;;;8.82;;
27219;SDS011;45274;52.266;10.790;2023-12-14T07:59:42;16.58;;;10.60;;
27219;SDS011;45274;52.266;10.790;2023-12-14T08:02:08;16.08;;;9.57;;
27219;SDS011;45274;52.266;10.790;2023-12-14T08:04:33;14.93;;;9.65;;
27219;SDS011;45274;52.266;10.790;2023-12-14T08:06:58;15.98;;;10.95;;
27219;SDS011;45274;52.266;10.790;2023-12-14T08:09:23;13.90;;;10.00;;
27219;SDS011;45274;52.266;10.790;2023-12-14T08:11:49;14.65;;;11.05;;
27219;SDS011;45274;52.266;10.790;2023-12-14T08:14:15;13.68;;;9.60;;
27219;SDS011;45274;52.266;10.790;2023-12-14T08:16:40;12.43;;;9.00;;
27219;SDS011;45274;52.266;10.790;2023-12-14T08:19:05;14.60;;;10.07;;
27219;SDS011;45274;52.266;10.790;2023-12-14T08:21:33;12.52;;;8.60;;
27219;SDS011;45274;52.266;10.790;2023-12-14T08:23:58;23.80;;;14.85;;
27219;SDS011;45274;52.266;10.790;2023-12-14T08:26:23;17.02;;;11.60;;
27219;SDS011;45274;52.266;10.790;2023-12-14T08:28:48;11.18;;;7.97;;
27219;SDS011;45274;52.266;10.790;2023-12-14T08:31:14;11.65;;;7.65;;
27219;SDS011;45274;52.266;10.790;2023-12-14T08:33:42;13.77;;;9.65;;
27219;SDS011;45274;52.266;10.790;2023-12-14T08:36:07;12.82;;;7.97;;
27219;SDS011;45274;52.266;10.790;2023-12-14T08:38:33;15.02;;;9.90;;
27219;SDS011;45274;52.266;10.790;2023-12-14T08:41:01;33.58;;;20.10;;
27219;SDS011;45274;52.266;10.790;2023-12-14T08:43:26;11.48;;;9.00;;
27219;SDS011;45274;52.266;10.790;2023-12-14T08:45:51;8.73;;;6.85;;
27219;SDS011;45274;52.266;10.790;2023-12-14T08:48:17;9.55;;;6.70;;
27219;SDS011;45274;52.266;10.790;2023-12-14T08:50:42;7.20;;;5.53;;
27219;SDS011;45274;52.266;10.790;2023-12-14T08:53:07;8.95;;;6.50;;
27219;SDS011;45274;52.266;10.790;2023-12-14T08:55:33;9.32;;;6.22;;
27219;SDS011;45274;52.266;10.790;2023-12-14T08:57:59;8.40;;;6.30;;
27219;SDS011;45274;52.266;10.790;2023-12-14T09:00:24;7.88;;;6.05;;
27219;SDS011;45274;52.266;10.790;2023-12-14T09:02:49;7.65;;;5.88;;
27219;SDS011;45274;52.266;10.790;2023-12-14T09:05:15;8.73;;;6.18;;
27219;SDS011;45274;52.266;10.790;2023-12-14T09:07:41;7.10;;;5.47;;
27219;SDS011;45274;52.266;10.790;2023-12-14T09:10:06;9.38;;;6.22;;
27219;SDS011;45274;52.266;10.790;2023-12-14T09:12:32;9.57;;;6.70;;
27219;SDS011;45274;52.266;10.790;2023-12-14T09:14:58;8.23;;;5.88;;
27219;SDS011;45274;52.266;10.790;2023-12-14T09:17:23;8.15;;;6.18;;
27219;SDS011;45274;52.266;10.790;2023-12-14T09:19:48;9.32;;;6.32;;
27219;SDS011;45274;52.266;10.790;2023-12-14T09:22:14;10.15;;;7.38;;
27219;SDS011;45274;52.266;10.790;2023-12-14T09:24:39;12.73;;;8.60;;
27219;SDS011;45274;52.266;10.790;2023-12-14T09:27:04;12.95;;;8.25;;
27219;SDS011;45274;52.266;10.790;2023-12-14T09:29:29;16.65;;;8.73;;
27219;SDS011;45274;52.266;10.790;2023-12-14T09:31:55;11.98;;;7.15;;
27219;SDS011;45274;52.266;10.790;2023-12-14T09:34:20;27.73;;;18.73;;
27219;SDS011;45274;52.266;10.790;2023-12-14T09:36:45;61.92;;;48.03;;
27219;SDS011;45274;52.266;10.790;2023-12-14T09:39:10;15.98;;;11.70;;
27219;SDS011;45274;52.266;10.790;2023-12-14T09:41:39;8.73;;;6.53;;
27219;SDS011;45274;52.266;10.790;2023-12-14T09:44:07;9.38;;;7.20;;
27219;SDS011;45274;52.266;10.790;2023-12-14T09:46:36;10.30;;;7.65;;
27219;SDS011;45274;52.266;10.790;2023-12-14T09:49:02;9.32;;;7.30;;
27219;SDS011;45274;52.266;10.790;2023-12-14T09:51:29;8.35;;;6.50;;
27219;SDS011;45274;52.266;10.790;2023-12-14T09:53:54;8.98;;;6.30;;
27219;SDS011;45274;52.266;10.790;2023-12-14T09:56:24;14.75;;;9.20;;
27219;SDS011;45274;52.266;10.790;2023-12-14T09:58:49;12.23;;;8.05;;
27219;SDS011;45274;52.266;10.790;2023-12-14T10:01:21;24.10;;;12.73;;
27219;SDS011;45274;52.266;10.790;2023-12-14T10:03:47;8.75;;;5.93;;
27219;SDS011;45274;52.266;10.790;2023-12-14T10:06:12;9.60;;;5.93;;
27219;SDS011;45274;52.266;10.790;2023-12-14T10:08:37;12.05;;;6.47;;
27219;SDS011;45274;52.266;10.790;2023-12-14T10:11:05;8.20;;;6.18;;
27219;SDS011;45274;52.266;10.790;2023-12-14T10:13:38;11.82;;;6.50;;
27219;SDS011;45274;52.266;10.790;2023-12-14T10:16:04;9.30;;;5.40;;
27219;SDS011;45274;52.266;10.790;2023-12-14T10:18:29;10.32;;;6.28;;
27219;SDS011;45274;52.266;10.790;2023-12-14T10:20:56;15.75;;;9.88;;
27219;SDS011;45274;52.266;10.790;2023-12-14T10:23:21;16.05;;;8.82;;
27219;SDS011;45274;52.266;10.790;2023-12-14T10:25:47;9.77;;;5.85;;
27219;SDS011;45274;52.266;10.790;2023-12-14T10:28:12;11.45;;;5.53;;
27219;SDS011;45274;52.266;10.790;2023-12-14T10:30:38;7.30;;;5.00;;
27219;SDS011;45274;52.266;10.790;2023-12-14T10:33:04;7.43;;;4.70;;
27219;SDS011;45274;52.266;10.790;2023-12-14T10:35:29;8.60;;;5.50;;
27219;SDS011;45274;52.266;10.790;2023-12-14T10:37:54;8.68;;;5.28;;
27219;SDS011;45274;52.266;10.790;2023-12-14T10:40:20;8.82;;;5.47;;
27219;SDS011;45274;52.266;10.790;2023-12-14T10:42:46;9.55;;;6.70;;
27219;SDS011;45274;52.266;10.790;2023-12-14T10:45:12;7.68;;;5.00;;
27219;SDS011;45274;52.266;10.790;2023-12-14T10:47:47;9.48;;;4.78;;
27219;SDS011;45274;52.266;10.790;2023-12-14T10:50:13;7.25;;;5.15;;
27219;SDS011;45274;52.266;10.790;2023-12-14T10:52:38;6.97;;;5.25;;
27219;SDS011;45274;52.266;10.790;2023-12-14T10:55:06;8.02;;;4.90;;
27219;SDS011;45274;52.266;10.790;2023-12-14T10:57:32;9.75;;;5.10;;
27219;SDS011;45274;52.266;10.790;2023-12-14T10:59:59;7.32;;;5.30;;
27219;SDS011;45274;52.266;10.790;2023-12-14T11:02:24;6.80;;;4.65;;
27219;SDS011;45274;52.266;10.790;2023-12-14T11:04:53;6.68;;;5.50;;
27219;SDS011;45274;52.266;10.790;2023-12-14T11:07:24;6.55;;;5.07;;
27219;SDS011;45274;52.266;10.790;2023-12-14T11:10:05;7.15;;;4.75;;
27219;SDS011;45274;52.266;10.790;2023-12-14T11:12:30;8.13;;;5.68;;
27219;SDS011;45274;52.266;10.790;2023-12-14T11:14:58;9.13;;;6.32;;
27219;SDS011;45274;52.266;10.790;2023-12-14T11:17:24;6.35;;;5.22;;
27219;SDS011;45274;52.266;10.790;2023-12-14T11:19:49;9.38;;;5.60;;
27219;SDS011;45274;52.266;10.790;2023-12-14T11:22:22;8.75;;;6.95;;
27219;SDS011;45274;52.266;10.790;2023-12-14T11:27:13;17.15;;;11.18;;
27219;SDS011;45274;52.266;10.790;2023-12-14T11:29:38;14.68;;;8.43;;
27219;SDS011;45274;52.266;10.790;2023-12-14T11:32:06;11.77;;;7.53;;
27219;SDS011;45274;52.266;10.790;2023-12-14T11:34:32;12.98;;;9.05;;
27219;SDS011;45274;52.266;10.790;2023-12-14T11:36:57;7.72;;;5.80;;
27219;SDS011;45274;52.266;10.790;2023-12-14T11:39:23;19.65;;;12.50;;
27219;SDS011;45274;52.266;10.790;2023-12-14T11:42:01;11.63;;;7.22;;
27219;SDS011;45274;52.266;10.790;2023-12-14T11:44:27;9.43;;;6.25;;
27219;SDS011;45274;52.266;10.790;2023-12-14T11:46:52;10.05;;;5.93;;
27219;SDS011;45274;52.266;10.790;2023-12-14T11:49:17;20.17;;;12.23;;
27219;SDS011;45274;52.266;10.790;2023-12-14T11:51:45;11.75;;;6.80;;
27219;SDS011;45274;52.266;10.790;2023-12-14T11:54:10;6.88;;;4.25;;
27219;SDS011;45274;52.266;10.790;2023-12-14T11:56:35;8.85;;;6.15;;
27219;SDS011;45274;52.266;10.790;2023-12-14T11:59:01;10.10;;;6.13;;
27219;SDS011;45274;52.266;10.790;2023-12-14T12:01:26;9.00;;;5.47;;
27219;SDS011;45274;52.266;10.790;2023-12-14T12:03:53;7.13;;;5.05;;
27219;SDS011;45274;52.266;10.790;2023-12-14T12:06:22;7.78;;;4.72;;
27219;SDS011;45274;52.266;10.790;2023-12-14T12:08:48;10.02;;;5.40;;
27219;SDS011;45274;52.266;10.790;2023-12-14T12:11:31;8.10;;;5.13;;
27219;SDS011;45274;52.266;10.790;2023-12-14T12:13:57;9.57;;;5.60;;
27219;SDS011;45274;52.266;10.790;2023-12-14T12:16:22;8.10;;;5.80;;
27219;SDS011;45274;52.266;10.790;2023-12-14T12:18:48;7.78;;;5.43;;
27219;SDS011;45274;52.266;10.790;2023-12-14T12:21:13;10.13;;;5.80;;
27219;SDS011;45274;52.266;10.790;2023-12-14T12:23:39;9.10;;;6.25;;
27219;SDS011;45274;52.266;10.790;2023-12-14T12:26:05;14.90;;;7.75;;
27219;SDS011;45274;52.266;10.790;2023-12-14T12:28:31;12.73;;;6.88;;
27219;SDS011;45274;52.266;10.790;2023-12-14T12:30:56;12.25;;;6.28;;
27219;SDS011;45274;52.266;10.790;2023-12-14T12:33:22;12.90;;;7.18;;
27219;SDS011;45274;52.266;10.790;2023-12-14T12:35:47;8.80;;;5.78;;
27219;SDS011;45274;52.266;10.790;2023-12-14T12:38:13;8.95;;;6.22;;
27219;SDS011;45274;52.266;10.790;2023-12-14T12:40:39;10.25;;;5.95;;
27219;SDS011;45274;52.266;10.790;2023-12-14T12:43:04;21.65;;;12.13;;
27219;SDS011;45274;52.266;10.790;2023-12-14T12:45:30;9.02;;;6.43;;
27219;SDS011;45274;52.266;10.790;2023-12-14T12:47:57;12.00;;;9.48;;
27219;SDS011;45274;52.266;10.790;2023-12-14T12:50:22;10.63;;;5.45;;
27219;SDS011;45274;52.266;10.790;2023-12-14T12:52:47;13.32;;;10.75;;
27219;SDS011;45274;52.266;10.790;2023-12-14T12:55:14;11.63;;;8.57;;
27219;SDS011;45274;52.266;10.790;2023-12-14T12:57:39;8.55;;;5.55;;
27219;SDS011;45274;52.266;10.790;2023-12-14T13:00:06;11.15;;;6.82;;
27219;SDS011;45274;52.266;10.790;2023-12-14T13:02:36;9.10;;;5.45;;
27219;SDS011;45274;52.266;10.790;2023-12-14T13:05:01;9.13;;;6.75;;
27219;SDS011;45274;52.266;10.790;2023-12-14T13:07:26;7.05;;;4.63;;
27219;SDS011;45274;52.266;10.790;2023-12-14T13:09:52;9.57;;;4.75;;
27219;SDS011;45274;52.266;10.790;2023-12-14T13:12:17;7.72;;;4.65;;
27219;SDS011;45274;52.266;10.790;2023-12-14T13:14:42;7.85;;;4.82;;
27219;SDS011;45274;52.266;10.790;2023-12-14T13:17:08;8.55;;;5.03;;
27219;SDS011;45274;52.266;10.790;2023-12-14T13:19:33;6.72;;;4.72;;
27219;SDS011;45274;52.266;10.790;2023-12-14T13:21:58;9.68;;;6.93;;
27219;SDS011;45274;52.266;10.790;2023-12-14T13:24:24;9.38;;;5.85;;
27219;SDS011;45274;52.266;10.790;2023-12-14T13:26:50;9.32;;;7.03;;
27219;SDS011;45274;52.266;10.790;2023-12-14T13:29:15;12.20;;;8.50;;
27219;SDS011;45274;52.266;10.790;2023-12-14T13:31:40;55.25;;;33.30;;
27219;SDS011;45274;52.266;10.790;2023-12-14T13:34:06;88.18;;;53.47;;
27219;SDS011;45274;52.266;10.790;2023-12-14T13:36:31;115.65;;;60.53;;
27219;SDS011;45274;52.266;10.790;2023-12-14T13:38:56;28.42;;;19.63;;
27219;SDS011;45274;52.266;10.790;2023-12-14T13:41:21;13.80;;;10.13;;
27219;SDS011;45274;52.266;10.790;2023-12-14T13:43:47;13.80;;;6.60;;
27219;SDS011;45274;52.266;10.790;2023-12-14T13:46:12;11.82;;;7.90;;
27219;SDS011;45274;52.266;10.790;2023-12-14T13:48:37;9.32;;;6.80;;
27219;SDS011;45274;52.266;10.790;2023-12-14T13:51:02;8.68;;;6.80;;
27219;SDS011;45274;52.266;10.790;2023-12-14T13:53:28;9.45;;;5.93;;
27219;SDS011;45274;52.266;10.790;2023-12-14T13:55:53;8.25;;;5.80;;
27219;SDS011;45274;52.266;10.790;2023-12-14T13:58:18;13.13;;;7.82;;
27219;SDS011;45274;52.266;10.790;2023-12-14T14:00:44;11.77;;;7.57;;
27219;SDS011;45274;52.266;10.790;2023-12-14T14:03:09;11.20;;;7.57;;
27219;SDS011;45274;52.266;10.790;2023-12-14T14:05:35;8.23;;;5.82;;
27219;SDS011;45274;52.266;10.790;2023-12-14T14:08:00;9.77;;;7.03;;
27219;SDS011;45274;52.266;10.790;2023-12-14T14:10:25;11.27;;;7.22;;
27219;SDS011;45274;52.266;10.790;2023-12-14T14:12:51;7.45;;;5.05;;
27219;SDS011;45274;52.266;10.790;2023-12-14T14:15:16;8.60;;;5.75;;
27219;SDS011;45274;52.266;10.790;2023-12-14T14:17:42;7.55;;;5.78;;
27219;SDS011;45274;52.266;10.790;2023-12-14T14:20:07;7.55;;;5.70;;
27219;SDS011;45274;52.266;10.790;2023-12-14T14:22:34;7.28;;;5.60;;
27219;SDS011;45274;52.266;10.790;2023-12-14T14:25:00;10.93;;;7.78;;